Time;durP1;ratioP1;P1;durP2;ratioP2;P2;SDS_P1;SDS_P2;PMS_P1;PMS_P2;Temp;Humidity;BMP_temperature;BMP_pressure;BME280_temperature;BME280_humidity;BME280_pressure;Samples;Min_cycle;Max_cycle;Signal;HPM_P1;HPM_P2
2022/01/20 00:02:20;;;;;;;31.60;5.82;;;;;;;;;;5012621;28;93409;-69
2022/01/20 00:05:02;;;;;;;37.90;3.83;;;;;;;;;;5012871;28;92397;-69
2022/01/20 00:07:44;;;;;;;30.13;4.72;;;;;;;;;;5006110;28;92423;-69
2022/01/20 00:27:03;;;;;;;25.17;3.50;;;;;;;;;;4967458;28;92383;-69
2022/01/20 00:29:32;;;;;;;27.85;4.15;;;;;;;;;;4972093;28;93244;-69
2022/01/20 00:32:08;;;;;;;27.40;3.75;;;;;;;;;;4975629;28;92486;-69
2022/01/20 00:35:04;;;;;;;21.27;3.35;;;;;;;;;;4972927;28;92325;-69
2022/01/20 00:37:21;;;;;;;29.70;3.78;;;;;;;;;;4978399;28;93396;-69
2022/01/20 00:39:48;;;;;;;35.10;3.70;;;;;;;;;;4970196;28;93615;-69
2022/01/20 00:42:15;;;;;;;33.70;4.68;;;;;;;;;;4968922;28;95409;-69
2022/01/20 00:44:42;;;;;;;18.70;3.72;;;;;;;;;;4973475;28;95959;-69
2022/01/20 00:47:09;;;;;;;24.60;4.68;;;;;;;;;;4969760;28;92431;-69
2022/01/20 00:49:35;;;;;;;21.05;2.88;;;;;;;;;;4970223;28;93253;-69
2022/01/20 00:52:03;;;;;;;30.95;3.55;;;;;;;;;;4970405;28;92897;-69
2022/01/20 00:54:29;;;;;;;27.05;3.38;;;;;;;;;;4968981;28;92802;-69
2022/01/20 00:56:56;;;;;;;24.25;4.22;;;;;;;;;;4970384;28;94067;-69
2022/01/20 00:59:23;;;;;;;28.00;3.00;;;;;;;;;;5004578;28;93572;-69
2022/01/20 01:01:49;;;;;;;26.70;3.30;;;;;;;;;;5010217;28;92462;-69
2022/01/20 01:04:15;;;;;;;25.25;3.78;;;;;;;;;;5010908;28;94599;-69
2022/01/20 01:09:27;;;;;;;29.92;3.22;;;;;;;;;;5004694;28;95518;-69
2022/01/20 01:11:58;;;;;;;23.70;3.22;;;;;;;;;;5005290;28;93075;-69
2022/01/20 01:14:25;;;;;;;27.70;4.35;;;;;;;;;;5001315;28;93270;-69
2022/01/20 01:24:40;;;;;;;16.52;2.28;;;;;;;;;;5007307;28;92004;-69
2022/01/20 01:27:06;;;;;;;;;;;;;;;;;;5007367;28;94479;-69
2022/01/20 01:32:02;;;;;;;19.67;2.63;;;;;;;;;;5009468;28;96425;-69
2022/01/20 01:34:30;;;;;;;25.58;3.38;;;;;;;;;;5000592;28;92509;-69
2022/01/20 01:39:26;;;;;;;31.20;3.83;;;;;;;;;;5011058;28;92496;-69
2022/01/20 01:41:54;;;;;;;24.52;3.20;;;;;;;;;;5012136;28;92384;-69
2022/01/20 01:44:24;;;;;;;22.35;3.60;;;;;;;;;;5011608;28;93013;-69
2022/01/20 01:46:51;;;;;;;37.42;5.45;;;;;;;;;;5010342;28;92436;-69
2022/01/20 01:49:18;;;;;;;27.20;4.07;;;;;;;;;;5014821;28;91822;-69
2022/01/20 01:51:45;;;;;;;29.30;3.33;;;;;;;;;;5011929;28;94749;-69
2022/01/20 01:54:12;;;;;;;27.08;3.83;;;;;;;;;;5011433;28;92431;-69
2022/01/20 01:56:38;;;;;;;25.10;3.85;;;;;;;;;;5010142;28;94820;-69
2022/01/20 01:59:05;;;;;;;31.95;4.20;;;;;;;;;;5010413;28;92464;-69
2022/01/20 02:01:34;;;;;;;30.35;3.65;;;;;;;;;;5009122;28;94352;-69
2022/01/20 02:04:12;;;;;;;35.30;3.53;;;;;;;;;;5004728;28;93245;-69
2022/01/20 02:20:39;;;;;;;34.20;3.55;;;;;;;;;;4949087;28;93446;-69
2022/01/20 02:23:06;;;;;;;21.15;3.30;;;;;;;;;;4957130;28;95011;-69
2022/01/20 02:25:33;;;;;;;31.55;3.70;;;;;;;;;;4948793;28;94046;-69
2022/01/20 02:28:06;;;;;;;30.10;3.97;;;;;;;;;;4958604;28;92893;-69
2022/01/20 02:30:33;;;;;;;37.63;4.65;;;;;;;;;;4950626;28;92856;-69
2022/01/20 02:33:04;;;;;;;24.70;3.40;;;;;;;;;;4948451;28;93794;-69
2022/01/20 02:35:32;;;;;;;23.58;3.80;;;;;;;;;;4953312;28;93422;-69
2022/01/20 02:38:27;;;;;;;28.25;3.45;;;;;;;;;;4958656;28;92933;-69
2022/01/20 02:45:58;;;;;;;16.80;2.28;;;;;;;;;;4980177;28;92334;-69
2022/01/20 02:48:24;;;;;;;26.50;2.60;;;;;;;;;;4996952;28;94705;-69
2022/01/20 02:50:51;;;;;;;27.80;3.90;;;;;;;;;;5007246;28;92572;-69
2022/01/20 02:53:17;;;;;;;26.00;3.38;;;;;;;;;;5013672;28;92939;-69
2022/01/20 02:55:43;;;;;;;25.27;3.33;;;;;;;;;;5012688;28;92439;-69
2022/01/20 02:58:09;;;;;;;25.90;3.72;;;;;;;;;;5005235;28;92463;-69
2022/01/20 03:00:36;;;;;;;28.02;4.53;;;;;;;;;;5010638;28;92497;-69
2022/01/20 03:03:02;;;;;;;30.17;4.03;;;;;;;;;;5009553;28;92422;-69
2022/01/20 03:05:31;;;;;;;27.25;5.60;;;;;;;;;;5009924;28;93442;-69
2022/01/20 03:07:58;;;;;;;28.13;3.53;;;;;;;;;;5010366;28;92511;-69
2022/01/20 03:10:24;;;;;;;27.85;3.58;;;;;;;;;;5007884;28;92474;-69
2022/01/20 03:12:50;;;;;;;22.98;3.42;;;;;;;;;;4998532;28;95151;-69
2022/01/20 03:15:17;;;;;;;20.75;2.75;;;;;;;;;;5011559;28;92384;-69
2022/01/20 03:17:43;;;;;;;26.23;4.28;;;;;;;;;;5012219;28;92368;-67
2022/01/20 03:20:10;;;;;;;32.58;3.53;;;;;;;;;;5011200;28;92971;-67
2022/01/20 03:22:36;;;;;;;31.05;3.92;;;;;;;;;;5008019;28;92360;-67
2022/01/20 03:25:02;;;;;;;27.73;4.43;;;;;;;;;;5004939;28;92854;-67
2022/01/20 03:27:29;;;;;;;26.35;4.20;;;;;;;;;;5002713;28;93624;-67
2022/01/20 03:29:55;;;;;;;23.75;3.78;;;;;;;;;;5012388;28;92380;-67
2022/01/20 03:32:21;;;;;;;25.77;3.97;;;;;;;;;;5013334;28;92476;-69
2022/01/20 03:34:47;;;;;;;22.10;3.80;;;;;;;;;;5012743;28;94294;-68
2022/01/20 03:37:14;;;;;;;21.85;3.45;;;;;;;;;;5004825;28;95012;-68
2022/01/20 03:39:40;;;;;;;37.42;5.00;;;;;;;;;;5015711;28;93842;-68
2022/01/20 03:42:06;;;;;;;20.23;2.65;;;;;;;;;;5005457;28;92408;-68
2022/01/20 03:44:33;;;;;;;19.48;2.90;;;;;;;;;;5002486;28;92471;-68
2022/01/20 03:47:02;;;;;;;21.77;2.47;;;;;;;;;;5013075;28;92389;-68
2022/01/20 03:52:14;;;;;;;19.92;3.17;;;;;;;;;;5000397;28;94000;-69
2022/01/20 03:54:40;;;;;;;19.85;2.97;;;;;;;;;;5009133;28;92737;-68
2022/01/20 03:57:07;;;;;;;17.98;2.30;;;;;;;;;;5011416;28;92850;-68
2022/01/20 03:59:33;;;;;;;11.70;1.75;;;;;;;;;;5005744;28;92540;-68
2022/01/20 04:01:59;;;;;;;13.00;2.75;;;;;;;;;;5010315;28;95262;-68
2022/01/20 04:04:26;;;;;;;14.95;2.40;;;;;;;;;;5011895;28;94245;-68
2022/01/20 04:06:52;;;;;;;13.73;1.90;;;;;;;;;;5013226;28;92447;-68
2022/01/20 04:09:18;;;;;;;23.67;2.70;;;;;;;;;;5006840;28;92575;-68
2022/01/20 04:11:45;;;;;;;11.23;2.50;;;;;;;;;;5001827;28;92638;-68
2022/01/20 04:14:12;;;;;;;19.52;2.03;;;;;;;;;;5009714;28;92944;-68
2022/01/20 04:16:53;;;;;;;20.67;1.98;;;;;;;;;;5008733;28;92389;-68
2022/01/20 04:19:19;;;;;;;16.45;1.95;;;;;;;;;;4999456;28;91858;-68
2022/01/20 04:21:46;;;;;;;12.90;3.45;;;;;;;;;;5011890;28;93503;-68
2022/01/20 04:24:12;;;;;;;10.90;1.80;;;;;;;;;;5013506;28;92737;-68
2022/01/20 04:26:40;;;;;;;17.73;2.00;;;;;;;;;;5010690;28;94957;-68
2022/01/20 04:29:07;;;;;;;12.02;1.83;;;;;;;;;;5011368;28;92777;-68
2022/01/20 04:31:34;;;;;;;13.05;1.95;;;;;;;;;;5012794;28;94266;-68
2022/01/20 04:34:01;;;;;;;12.90;2.20;;;;;;;;;;4997536;28;94070;-68
2022/01/20 04:36:30;;;;;;;11.82;2.13;;;;;;;;;;4996651;28;93323;-68
2022/01/20 04:38:59;;;;;;;18.98;2.40;;;;;;;;;;5007943;28;92610;-68
2022/01/20 04:41:29;;;;;;;18.67;1.92;;;;;;;;;;5007058;28;92588;-68
2022/01/20 04:43:59;;;;;;;13.20;2.40;;;;;;;;;;4998417;28;91930;-68
2022/01/20 04:46:39;;;;;;;15.93;2.00;;;;;;;;;;5013701;28;92496;-68
2022/01/20 04:57:02;;;;;;;22.83;2.80;;;;;;;;;;5011865;28;92488;-68
2022/01/20 04:57:22;;;;;;;18.92;3.35;;;;;;;;;;5009925;28;92953;-68
2022/01/20 04:59:49;;;;;;;33.22;4.25;;;;;;;;;;5000282;28;92665;-68
2022/01/20 05:02:16;;;;;;;23.92;3.20;;;;;;;;;;5011190;28;93334;-68
2022/01/20 05:04:42;;;;;;;14.70;3.03;;;;;;;;;;5007112;28;92475;-68
2022/01/20 05:07:10;;;;;;;30.15;3.45;;;;;;;;;;5011220;28;92392;-68
2022/01/20 05:09:37;;;;;;;26.55;4.28;;;;;;;;;;5015006;28;92733;-68
2022/01/20 05:12:08;;;;;;;22.85;4.40;;;;;;;;;;5010615;28;93212;-68
2022/01/20 05:14:34;;;;;;;27.25;2.85;;;;;;;;;;5006271;28;92505;-69
2022/01/20 05:17:01;;;;;;;29.13;4.22;;;;;;;;;;5005951;28;95427;-68
2022/01/20 05:19:28;;;;;;;28.73;4.00;;;;;;;;;;5008076;28;96084;-68
2022/01/20 05:21:55;;;;;;;23.95;3.38;;;;;;;;;;5010621;28;92458;-68
2022/01/20 05:24:24;;;;;;;29.73;3.92;;;;;;;;;;5009591;28;93119;-69
2022/01/20 05:26:51;;;;;;;32.15;3.95;;;;;;;;;;5008347;28;92383;-68
2022/01/20 05:29:18;;;;;;;30.73;4.47;;;;;;;;;;5010412;28;92295;-68
2022/01/20 05:31:44;;;;;;;29.00;4.28;;;;;;;;;;4999802;28;92487;-68
2022/01/20 05:34:11;;;;;;;25.00;4.35;;;;;;;;;;5008806;28;92661;-68
2022/01/20 05:36:37;;;;;;;24.70;3.60;;;;;;;;;;5011744;28;92156;-68
2022/01/20 05:39:04;;;;;;;45.88;4.55;;;;;;;;;;4997832;28;92919;-68
2022/01/20 05:41:30;;;;;;;27.48;4.90;;;;;;;;;;5009497;28;94757;-68
2022/01/20 05:43:56;;;;;;;28.65;4.32;;;;;;;;;;4998925;28;92398;-68
2022/01/20 05:46:26;;;;;;;25.88;4.47;;;;;;;;;;5007156;28;93172;-68
2022/01/20 05:48:56;;;;;;;29.13;4.15;;;;;;;;;;5006424;28;93659;-68
2022/01/20 05:51:23;;;;;;;28.45;4.22;;;;;;;;;;5014003;28;92513;-68
2022/01/20 05:53:49;;;;;;;33.25;3.83;;;;;;;;;;5003677;28;92953;-68
2022/01/20 05:56:15;;;;;;;34.65;4.57;;;;;;;;;;5011270;28;92590;-68
2022/01/20 05:58:41;;;;;;;24.20;3.33;;;;;;;;;;5000962;28;93155;-68
2022/01/20 06:01:08;;;;;;;30.38;4.35;;;;;;;;;;5008926;28;92402;-68
2022/01/20 06:03:37;;;;;;;34.67;4.28;;;;;;;;;;4999797;28;92417;-68
2022/01/20 06:06:05;;;;;;;23.38;3.35;;;;;;;;;;5007705;28;94823;-68
2022/01/20 06:08:32;;;;;;;25.20;3.50;;;;;;;;;;5010686;28;92562;-68
2022/01/20 06:10:58;;;;;;;25.80;3.25;;;;;;;;;;5009382;28;92255;-68
2022/01/20 06:13:25;;;;;;;25.65;3.53;;;;;;;;;;5004282;28;93357;-68
2022/01/20 06:15:51;;;;;;;22.88;3.60;;;;;;;;;;5010763;28;92391;-68
2022/01/20 06:18:18;;;;;;;40.95;3.95;;;;;;;;;;5009981;28;92308;-68
2022/01/20 06:20:44;;;;;;;15.52;3.17;;;;;;;;;;5009626;28;92335;-68
2022/01/20 06:23:10;;;;;;;23.88;3.60;;;;;;;;;;5011316;28;92388;-68
2022/01/20 06:25:37;;;;;;;15.43;2.83;;;;;;;;;;5014825;28;92492;-68
2022/01/20 06:28:03;;;;;;;23.90;2.85;;;;;;;;;;5013164;28;94288;-68
2022/01/20 06:30:31;;;;;;;21.15;3.47;;;;;;;;;;5012713;28;94819;-68
2022/01/20 06:32:58;;;;;;;24.58;3.92;;;;;;;;;;5011429;28;94188;-68
2022/01/20 06:35:25;;;;;;;38.40;4.57;;;;;;;;;;5016515;28;93414;-68
2022/01/20 06:37:52;;;;;;;52.67;4.10;;;;;;;;;;5014580;28;92439;-68
2022/01/20 06:40:18;;;;;;;26.38;2.88;;;;;;;;;;5012837;28;94417;-69
2022/01/20 06:42:45;;;;;;;19.85;3.22;;;;;;;;;;5011070;28;92497;-68
2022/01/20 06:45:13;;;;;;;24.27;3.10;;;;;;;;;;5014641;28;92478;-68
2022/01/20 06:47:39;;;;;;;34.20;3.70;;;;;;;;;;5014232;28;92387;-68
2022/01/20 06:50:06;;;;;;;17.08;3.25;;;;;;;;;;5012161;28;92711;-68
2022/01/20 06:52:33;;;;;;;14.65;2.78;;;;;;;;;;5013176;28;93924;-69
2022/01/20 06:55:00;;;;;;;23.17;3.72;;;;;;;;;;5013027;28;95330;-69
2022/01/20 06:57:26;;;;;;;28.88;2.67;;;;;;;;;;5016191;28;92396;-69
2022/01/20 06:59:53;;;;;;;20.30;2.55;;;;;;;;;;5008465;28;92507;-68
2022/01/20 07:02:19;;;;;;;17.02;3.28;;;;;;;;;;5013522;28;92419;-69
2022/01/20 07:04:47;;;;;;;11.95;2.92;;;;;;;;;;5014467;28;93106;-68
2022/01/20 07:07:14;;;;;;;27.40;4.70;;;;;;;;;;5013981;28;92348;-70
2022/01/20 07:09:40;;;;;;;17.55;2.97;;;;;;;;;;5002496;28;92666;-70
2022/01/20 07:12:07;;;;;;;12.30;2.25;;;;;;;;;;4998201;28;92956;-69
2022/01/20 07:14:33;;;;;;;19.05;2.50;;;;;;;;;;5012140;28;93134;-69
2022/01/20 07:17:00;;;;;;;17.08;2.75;;;;;;;;;;5013034;28;92895;-69
2022/01/20 07:19:27;;;;;;;15.05;2.75;;;;;;;;;;5013564;28;95096;-70
2022/01/20 07:21:53;;;;;;;18.80;2.88;;;;;;;;;;5015146;28;93064;-68
2022/01/20 07:24:19;;;;;;;12.50;2.33;;;;;;;;;;4998171;28;92433;-68
2022/01/20 07:26:45;;;;;;;12.32;2.22;;;;;;;;;;5010564;28;92378;-69
2022/01/20 07:29:12;;;;;;;21.02;2.80;;;;;;;;;;5014284;28;92445;-70
2022/01/20 07:31:38;;;;;;;16.15;2.20;;;;;;;;;;5012764;28;93362;-68
2022/01/20 07:34:05;;;;;;;12.57;2.20;;;;;;;;;;5011948;28;92808;-69
2022/01/20 07:36:31;;;;;;;12.45;2.58;;;;;;;;;;5013624;28;91615;-69
2022/01/20 07:38:57;;;;;;;15.15;2.60;;;;;;;;;;5012742;28;92820;-69
2022/01/20 07:41:24;;;;;;;14.77;2.55;;;;;;;;;;5020555;28;92993;-69
2022/01/20 07:43:50;;;;;;;27.58;4.22;;;;;;;;;;5012537;28;95273;-67
2022/01/20 07:46:16;;;;;;;23.05;2.70;;;;;;;;;;5012391;28;93540;-73
2022/01/20 07:48:43;;;;;;;16.15;2.88;;;;;;;;;;5013455;28;92662;-68
2022/01/20 07:51:09;;;;;;;13.93;2.13;;;;;;;;;;5014468;28;93186;-68
2022/01/20 07:53:36;;;;;;;17.23;2.60;;;;;;;;;;5011204;28;93209;-68
2022/01/20 07:56:03;;;;;;;16.20;2.13;;;;;;;;;;5013628;28;92487;-69
2022/01/20 07:58:29;;;;;;;14.73;2.35;;;;;;;;;;5013961;28;93392;-68
2022/01/20 08:00:55;;;;;;;13.90;2.25;;;;;;;;;;5016250;28;92501;-70
2022/01/20 08:03:24;;;;;;;39.88;4.65;;;;;;;;;;5011782;28;92572;-69
2022/01/20 08:05:51;;;;;;;19.33;2.63;;;;;;;;;;5013682;28;94451;-69
2022/01/20 08:08:17;;;;;;;15.63;2.70;;;;;;;;;;5011850;28;95057;-69
2022/01/20 08:10:43;;;;;;;19.02;2.72;;;;;;;;;;5013715;28;95389;-69
2022/01/20 08:13:10;;;;;;;20.23;2.83;;;;;;;;;;5013371;28;92838;-69
2022/01/20 08:15:36;;;;;;;24.08;2.70;;;;;;;;;;5012139;28;92592;-69
2022/01/20 08:18:03;;;;;;;15.32;2.30;;;;;;;;;;5012612;28;93357;-69
2022/01/20 08:20:29;;;;;;;12.60;2.45;;;;;;;;;;5013278;28;92525;-69
2022/01/20 08:22:56;;;;;;;25.17;4.05;;;;;;;;;;5011913;28;93268;-69
2022/01/20 08:25:23;;;;;;;49.63;4.93;;;;;;;;;;5006881;28;92084;-69
2022/01/20 08:27:50;;;;;;;31.13;3.97;;;;;;;;;;5013713;28;92388;-69
2022/01/20 08:30:18;;;;;;;18.75;3.08;;;;;;;;;;5012446;28;92389;-69
2022/01/20 08:32:45;;;;;;;18.38;2.88;;;;;;;;;;5009049;28;94896;-69
2022/01/20 08:35:12;;;;;;;15.57;2.97;;;;;;;;;;5013303;28;92368;-69
2022/01/20 08:37:40;;;;;;;18.17;2.83;;;;;;;;;;5013321;28;92448;-71
2022/01/20 08:40:13;;;;;;;17.50;2.42;;;;;;;;;;5012537;28;93364;-70
2022/01/20 08:42:41;;;;;;;16.50;2.85;;;;;;;;;;5012499;28;92629;-70
2022/01/20 08:45:10;;;;;;;16.80;3.10;;;;;;;;;;5014529;28;92360;-70
2022/01/20 08:47:36;;;;;;;28.77;3.80;;;;;;;;;;5002938;28;92395;-71
2022/01/20 08:50:03;;;;;;;17.40;3.20;;;;;;;;;;5010064;28;91775;-70
2022/01/20 08:52:29;;;;;;;16.48;2.55;;;;;;;;;;5012158;28;92532;-70
2022/01/20 08:54:58;;;;;;;17.80;2.95;;;;;;;;;;5012482;28;92702;-70
2022/01/20 08:57:27;;;;;;;22.83;3.47;;;;;;;;;;5011153;28;94824;-71
2022/01/20 08:59:54;;;;;;;32.05;3.30;;;;;;;;;;5007883;28;92414;-70
2022/01/20 09:02:21;;;;;;;19.85;3.28;;;;;;;;;;5009487;28;94397;-70
2022/01/20 09:04:47;;;;;;;17.45;2.88;;;;;;;;;;5012670;28;94290;-70
2022/01/20 09:07:14;;;;;;;24.65;2.78;;;;;;;;;;5015907;28;93251;-71
2022/01/20 09:09:43;;;;;;;24.25;2.60;;;;;;;;;;5012586;28;92968;-70
2022/01/20 09:17:24;;;;;;;19.77;3.03;;;;;;;;;;4992880;28;92362;-70
2022/01/20 09:19:51;;;;;;;15.68;3.20;;;;;;;;;;4994146;28;92426;-71
2022/01/20 09:22:17;;;;;;;27.25;2.95;;;;;;;;;;5008470;28;94944;-71
2022/01/20 09:24:45;;;;;;;22.05;2.95;;;;;;;;;;5008925;28;95584;-70
2022/01/20 09:27:13;;;;;;;33.72;5.43;;;;;;;;;;5010520;28;93235;-70
2022/01/20 09:29:40;;;;;;;22.35;3.42;;;;;;;;;;5015272;28;92390;-70
2022/01/20 09:32:09;;;;;;;25.08;3.53;;;;;;;;;;5010217;28;94649;-71
2022/01/20 09:34:36;;;;;;;19.42;2.90;;;;;;;;;;5012136;28;92821;-71
2022/01/20 09:37:02;;;;;;;23.98;3.83;;;;;;;;;;5011590;28;92440;-71
2022/01/20 09:39:28;;;;;;;20.92;3.05;;;;;;;;;;5011407;28;92327;-71
2022/01/20 09:41:57;;;;;;;22.92;3.03;;;;;;;;;;5012091;28;92394;-71
2022/01/20 09:44:24;;;;;;;16.73;3.38;;;;;;;;;;5012206;28;93696;-71
2022/01/20 09:46:51;;;;;;;21.88;2.92;;;;;;;;;;5008908;28;95828;-69
2022/01/20 09:49:17;;;;;;;20.73;2.63;;;;;;;;;;5011652;28;92592;-71
2022/01/20 09:51:44;;;;;;;15.55;2.67;;;;;;;;;;5010018;28;92452;-70
2022/01/20 09:54:11;;;;;;;18.05;2.55;;;;;;;;;;5011599;28;92613;-69
2022/01/20 09:56:37;;;;;;;38.25;4.57;;;;;;;;;;5009588;28;92612;-69
2022/01/20 09:59:04;;;;;;;36.70;2.97;;;;;;;;;;5005681;28;94738;-70
2022/01/20 10:01:34;;;;;;;19.25;2.50;;;;;;;;;;5021684;28;92951;-69
2022/01/20 10:04:00;;;;;;;23.70;3.55;;;;;;;;;;5036151;27;94242;-70
2022/01/20 10:06:26;;;;;;;15.35;2.63;;;;;;;;;;5034418;27;93613;-72
2022/01/20 10:08:59;;;;;;;17.52;2.88;;;;;;;;;;5011853;28;92520;-71
2022/01/20 10:11:44;;;;;;;17.38;3.15;;;;;;;;;;5016561;28;94783;-70
2022/01/20 10:14:10;;;;;;;21.33;2.65;;;;;;;;;;5020583;27;92908;-71
2022/01/20 10:16:37;;;;;;;107.22;5.30;;;;;;;;;;5007420;28;93036;-70
2022/01/20 10:19:05;;;;;;;18.45;2.10;;;;;;;;;;4999417;28;92406;-70
2022/01/20 10:21:33;;;;;;;32.97;3.53;;;;;;;;;;5012929;28;92486;-70
2022/01/20 10:24:07;;;;;;;19.10;3.05;;;;;;;;;;5015124;28;93058;-71
2022/01/20 10:26:33;;;;;;;15.05;2.38;;;;;;;;;;5013740;28;94496;-70
2022/01/20 10:29:01;;;;;;;17.13;3.00;;;;;;;;;;5014785;28;91717;-70
2022/01/20 10:31:37;;;;;;;20.27;2.67;;;;;;;;;;4998186;28;92439;-70
2022/01/20 10:34:05;;;;;;;37.00;3.30;;;;;;;;;;5015378;28;93515;-70
2022/01/20 10:36:37;;;;;;;17.17;2.35;;;;;;;;;;5011004;28;94883;-70
2022/01/20 10:39:04;;;;;;;17.45;2.75;;;;;;;;;;5013965;28;93771;-70
2022/01/20 10:41:35;;;;;;;22.63;3.08;;;;;;;;;;5008292;28;92912;-70
2022/01/20 10:44:06;;;;;;;20.77;3.03;;;;;;;;;;5013290;28;92438;-70
2022/01/20 10:46:42;;;;;;;17.15;2.67;;;;;;;;;;5013473;28;93624;-70
2022/01/20 10:49:09;;;;;;;12.55;2.50;;;;;;;;;;5009933;28;92397;-70
2022/01/20 10:51:35;;;;;;;14.77;2.33;;;;;;;;;;5014881;28;93010;-70
2022/01/20 10:54:10;;;;;;;12.18;2.15;;;;;;;;;;5013498;28;92795;-70
2022/01/20 10:56:50;;;;;;;19.40;3.63;;;;;;;;;;5006737;28;93212;-70
2022/01/20 10:59:16;;;;;;;12.77;2.08;;;;;;;;;;5010609;28;93524;-70
2022/01/20 11:01:43;;;;;;;18.40;2.60;;;;;;;;;;5012908;28;94758;-70
2022/01/20 11:04:14;;;;;;;16.02;2.40;;;;;;;;;;5013998;28;95784;-70
2022/01/20 11:06:41;;;;;;;12.25;2.15;;;;;;;;;;5014063;28;92352;-70
2022/01/20 11:09:09;;;;;;;13.00;2.40;;;;;;;;;;5012978;28;92409;-70
2022/01/20 11:11:36;;;;;;;12.27;2.35;;;;;;;;;;5014067;28;92397;-70
2022/01/20 11:14:02;;;;;;;19.10;2.80;;;;;;;;;;5013179;28;92449;-70
2022/01/20 11:16:33;;;;;;;19.83;2.35;;;;;;;;;;5014651;28;92843;-70
2022/01/20 11:19:00;;;;;;;47.72;4.68;;;;;;;;;;5016434;28;91893;-70
2022/01/20 11:21:26;;;;;;;18.98;2.80;;;;;;;;;;5014247;28;92447;-70
2022/01/20 11:23:53;;;;;;;8.50;1.67;;;;;;;;;;5013074;28;93618;-70
2022/01/20 11:26:20;;;;;;;12.77;2.50;;;;;;;;;;5012521;28;95839;-70
2022/01/20 11:28:59;;;;;;;10.13;1.75;;;;;;;;;;5013838;28;92531;-70
2022/01/20 11:31:29;;;;;;;14.30;2.60;;;;;;;;;;4993766;28;93116;-70
2022/01/20 11:33:55;;;;;;;12.88;2.08;;;;;;;;;;4993439;28;93222;-70
2022/01/20 11:36:29;;;;;;;47.88;4.88;;;;;;;;;;4999182;28;93078;-70
2022/01/20 11:39:17;;;;;;;20.73;2.22;;;;;;;;;;5013178;28;92435;-71
2022/01/20 11:41:49;;;;;;;12.70;2.30;;;;;;;;;;5016867;28;94291;-71
2022/01/20 11:44:20;;;;;;;7.65;1.90;;;;;;;;;;5005185;28;92067;-70
2022/01/20 11:46:50;;;;;;;11.15;2.15;;;;;;;;;;4994117;28;92403;-71
2022/01/20 11:49:18;;;;;;;12.40;2.00;;;;;;;;;;5013653;28;92588;-71
2022/01/20 11:51:55;;;;;;;14.25;2.33;;;;;;;;;;5012616;28;94784;-71
2022/01/20 11:54:26;;;;;;;43.80;3.53;;;;;;;;;;5013510;28;93431;-70
2022/01/20 11:57:03;;;;;;;19.48;2.42;;;;;;;;;;5012673;28;92375;-70
2022/01/20 11:59:40;;;;;;;18.92;2.42;;;;;;;;;;5013976;28;92557;-69
2022/01/20 12:02:07;;;;;;;16.50;2.13;;;;;;;;;;5013216;28;92422;-70
2022/01/20 12:04:34;;;;;;;10.73;2.50;;;;;;;;;;5016459;28;92308;-70
2022/01/20 12:07:01;;;;;;;19.55;2.80;;;;;;;;;;5012222;28;92558;-70
2022/01/20 12:09:35;;;;;;;15.85;3.10;;;;;;;;;;5013580;28;91631;-68
2022/01/20 12:12:03;;;;;;;12.02;2.30;;;;;;;;;;5013329;28;93099;-70
2022/01/20 12:14:38;;;;;;;15.25;1.92;;;;;;;;;;5011827;28;92420;-70
2022/01/20 12:17:06;;;;;;;18.15;3.67;;;;;;;;;;5011386;28;94689;-70
2022/01/20 12:19:32;;;;;;;20.00;3.72;;;;;;;;;;5013162;28;96349;-69
2022/01/20 12:22:01;;;;;;;13.27;2.38;;;;;;;;;;5013448;28;93530;-70
2022/01/20 12:24:27;;;;;;;12.10;2.70;;;;;;;;;;5008105;28;92453;-69
2022/01/20 12:26:53;;;;;;;13.38;2.30;;;;;;;;;;5012648;28;93290;-71
2022/01/20 12:29:19;;;;;;;15.48;2.47;;;;;;;;;;5011849;28;92375;-70
2022/01/20 12:31:46;;;;;;;20.75;2.83;;;;;;;;;;5013025;28;92994;-70
2022/01/20 12:34:13;;;;;;;18.20;2.30;;;;;;;;;;5012958;28;92683;-70
2022/01/20 12:36:39;;;;;;;23.83;2.60;;;;;;;;;;4999501;28;92539;-70
2022/01/20 12:39:06;;;;;;;23.98;2.63;;;;;;;;;;4993061;28;92644;-70
2022/01/20 12:41:32;;;;;;;20.00;2.92;;;;;;;;;;5002032;28;95834;-70
2022/01/20 12:44:05;;;;;;;16.73;3.10;;;;;;;;;;5012935;28;93266;-70
2022/01/20 12:46:33;;;;;;;17.75;2.72;;;;;;;;;;5015838;28;92500;-70
2022/01/20 12:48:59;;;;;;;20.65;3.00;;;;;;;;;;5012804;28;92699;-70
2022/01/20 12:51:34;;;;;;;17.17;3.00;;;;;;;;;;5012046;28;94147;-70
2022/01/20 12:54:04;;;;;;;25.70;3.58;;;;;;;;;;5005722;28;94458;-71
2022/01/20 12:56:32;;;;;;;19.48;2.78;;;;;;;;;;5012350;28;92212;-72
2022/01/20 12:58:58;;;;;;;20.27;2.45;;;;;;;;;;5011603;28;93423;-70
2022/01/20 13:01:24;;;;;;;10.60;2.30;;;;;;;;;;5011047;28;92373;-70
2022/01/20 13:03:51;;;;;;;20.52;3.40;;;;;;;;;;4993470;28;92730;-72
2022/01/20 13:06:24;;;;;;;17.80;2.55;;;;;;;;;;5001681;28;94905;-72
2022/01/20 13:09:04;;;;;;;25.48;3.17;;;;;;;;;;5012402;28;92479;-70
2022/01/20 13:11:32;;;;;;;16.95;2.80;;;;;;;;;;5010400;28;92381;-72
2022/01/20 13:14:00;;;;;;;17.38;2.80;;;;;;;;;;5011408;28;93503;-71
2022/01/20 13:16:26;;;;;;;14.40;2.40;;;;;;;;;;5012605;28;92389;-70
2022/01/20 13:18:56;;;;;;;18.85;2.30;;;;;;;;;;5012531;28;92453;-71
2022/01/20 13:21:35;;;;;;;22.92;3.42;;;;;;;;;;5012583;28;92397;-71
2022/01/20 13:24:03;;;;;;;15.07;2.65;;;;;;;;;;4999696;28;91686;-71
2022/01/20 13:26:30;;;;;;;25.42;3.30;;;;;;;;;;5008358;28;92389;-71
2022/01/20 13:29:00;;;;;;;14.70;2.60;;;;;;;;;;5011727;28;93100;-71
2022/01/20 13:31:36;;;;;;;31.85;3.03;;;;;;;;;;5012816;28;94839;-71
2022/01/20 13:34:10;;;;;;;12.23;2.42;;;;;;;;;;5011564;28;92563;-70
2022/01/20 13:36:37;;;;;;;15.45;3.08;;;;;;;;;;5009966;28;92421;-71
2022/01/20 13:39:04;;;;;;;16.77;2.63;;;;;;;;;;5011996;28;92376;-71
2022/01/20 13:41:30;;;;;;;16.88;2.85;;;;;;;;;;5010556;28;92536;-71
2022/01/20 13:46:45;;;;;;;14.27;3.30;;;;;;;;;;5009792;28;93223;-71
2022/01/20 13:49:13;;;;;;;16.10;2.17;;;;;;;;;;5012041;28;91799;-71
2022/01/20 13:51:40;;;;;;;16.10;2.30;;;;;;;;;;5012407;28;92355;-70
2022/01/20 13:54:06;;;;;;;7.95;1.80;;;;;;;;;;5014710;28;92958;-70
2022/01/20 13:56:33;;;;;;;9.82;1.75;;;;;;;;;;5009774;28;94949;-70
2022/01/20 13:59:06;;;;;;;14.55;3.25;;;;;;;;;;5011505;28;95588;-70
2022/01/20 14:01:52;;;;;;;20.33;2.50;;;;;;;;;;5011360;28;96188;-70
2022/01/20 14:04:19;;;;;;;9.73;1.90;;;;;;;;;;5011664;28;92695;-71
2022/01/20 14:06:45;;;;;;;16.17;2.42;;;;;;;;;;5010538;28;93730;-71
2022/01/20 14:09:11;;;;;;;16.38;2.53;;;;;;;;;;5010383;28;93456;-70
2022/01/20 14:11:39;;;;;;;16.60;3.35;;;;;;;;;;5009605;28;92542;-70
2022/01/20 14:14:08;;;;;;;19.73;3.58;;;;;;;;;;5014390;28;91891;-70
2022/01/20 14:16:35;;;;;;;20.75;3.20;;;;;;;;;;5011316;28;92431;-70
2022/01/20 14:19:01;;;;;;;22.38;3.22;;;;;;;;;;5011031;28;93041;-70
2022/01/20 14:21:28;;;;;;;19.52;2.50;;;;;;;;;;5006637;28;94867;-71
2022/01/20 14:23:54;;;;;;;21.10;2.83;;;;;;;;;;5015505;27;92993;-71
2022/01/20 14:26:28;;;;;;;21.17;2.88;;;;;;;;;;5015993;28;93152;-71
2022/01/20 14:28:55;;;;;;;22.10;3.10;;;;;;;;;;5030336;28;94419;-70
2022/01/20 14:31:21;;;;;;;19.75;2.90;;;;;;;;;;4998935;28;92546;-68
2022/01/20 14:33:47;;;;;;;25.90;2.72;;;;;;;;;;4991247;28;92986;-71
2022/01/20 14:36:14;;;;;;;12.30;3.00;;;;;;;;;;5004300;28;92360;-70
2022/01/20 14:38:40;;;;;;;17.13;2.85;;;;;;;;;;5010729;28;94611;-71
2022/01/20 14:41:06;;;;;;;24.77;3.83;;;;;;;;;;5011410;28;92936;-71
2022/01/20 14:43:32;;;;;;;20.25;2.95;;;;;;;;;;5011865;28;92359;-71
2022/01/20 14:45:59;;;;;;;19.88;2.53;;;;;;;;;;5010781;28;94839;-70
2022/01/20 14:48:27;;;;;;;16.17;3.17;;;;;;;;;;5014417;28;92438;-70
2022/01/20 14:50:54;;;;;;;17.88;2.97;;;;;;;;;;5015122;28;92260;-71
2022/01/20 14:53:20;;;;;;;24.50;3.72;;;;;;;;;;5014064;28;93451;-71
2022/01/20 14:55:46;;;;;;;21.17;3.65;;;;;;;;;;5014943;28;92543;-71
2022/01/20 14:58:12;;;;;;;15.10;3.00;;;;;;;;;;5017326;28;92358;-71
2022/01/20 15:00:39;;;;;;;25.88;3.03;;;;;;;;;;5013784;28;93144;-70
2022/01/20 15:03:06;;;;;;;15.95;2.67;;;;;;;;;;5015383;28;92163;-70
2022/01/20 15:05:33;;;;;;;16.63;2.33;;;;;;;;;;5013774;28;92942;-70
2022/01/20 15:08:00;;;;;;;13.63;2.47;;;;;;;;;;5011273;28;93629;-71
2022/01/20 15:10:26;;;;;;;23.90;3.80;;;;;;;;;;5013018;28;95456;-71
2022/01/20 15:12:59;;;;;;;17.98;2.22;;;;;;;;;;5013931;28;95422;-70
2022/01/20 15:15:26;;;;;;;13.60;1.90;;;;;;;;;;5013232;28;93192;-70
2022/01/20 15:17:52;;;;;;;10.40;2.03;;;;;;;;;;5013921;28;92513;-70
2022/01/20 15:20:37;;;;;;;9.82;1.65;;;;;;;;;;5013130;27;93782;-70
2022/01/20 15:23:05;;;;;;;25.35;4.13;;;;;;;;;;5009317;28;92435;-70
2022/01/20 15:25:31;;;;;;;16.50;2.10;;;;;;;;;;5004831;28;93410;-70
2022/01/20 15:27:57;;;;;;;11.00;1.77;;;;;;;;;;5012320;28;92777;-70
2022/01/20 15:30:23;;;;;;;10.02;1.85;;;;;;;;;;5010321;28;92315;-70
2022/01/20 15:32:50;;;;;;;11.27;1.92;;;;;;;;;;4994708;28;93145;-70
2022/01/20 15:35:16;;;;;;;10.93;1.70;;;;;;;;;;5010943;28;97036;-70
2022/01/20 15:37:42;;;;;;;10.25;2.33;;;;;;;;;;5012468;28;92457;-70
2022/01/20 15:40:11;;;;;;;9.35;1.85;;;;;;;;;;5014416;28;93589;-70
2022/01/20 15:42:37;;;;;;;6.28;1.65;;;;;;;;;;5017140;28;93360;-70
2022/01/20 15:45:06;;;;;;;11.30;1.83;;;;;;;;;;5012611;28;92621;-71